Time;durP1;ratioP1;P1;durP2;ratioP2;P2;SDS_P1;SDS_P2;PMS_P1;PMS_P2;Temp;Humidity;BMP_temperature;BMP_pressure;BME280_temperature;BME280_humidity;BME280_pressure;Samples;Min_cycle;Max_cycle;Signal;HPM_P1;HPM_P2
2023/01/08 00:01:18;;;;;;;7.90;3.70;;;;;;;19.26;57.24;99666.59;5099899;28;20540;-61
2023/01/08 00:03:43;;;;;;;8.60;4.40;;;;;;;19.25;57.19;99667.78;5098593;28;20669;-60
2023/01/08 00:06:14;;;;;;;7.47;4.50;;;;;;;19.23;57.56;99665.34;5074117;28;20233;-60
2023/01/08 00:08:39;;;;;;;7.80;4.33;;;;;;;19.24;57.33;99666.97;5095319;28;20256;-61
2023/01/08 00:11:05;;;;;;;9.50;3.90;;;;;;;19.23;57.20;99651.03;5094035;28;20873;-60
2023/01/08 00:13:30;;;;;;;8.77;4.57;;;;;;;19.20;57.37;99660.38;5096142;28;20213;-60
2023/01/08 00:15:55;;;;;;;7.67;4.30;;;;;;;19.23;57.24;99656.75;5076150;28;20174;-61
2023/01/08 00:18:21;;;;;;;9.87;3.90;;;;;;;19.21;57.19;99656.28;5093799;28;20189;-60
2023/01/08 00:20:46;;;;;;;6.10;4.00;;;;;;;19.22;57.28;99657.97;5096276;28;20194;-61
2023/01/08 00:23:16;;;;;;;7.17;4.60;;;;;;;19.18;57.45;99644.84;5093703;28;20739;-61
2023/01/08 00:25:42;;;;;;;8.50;3.60;;;;;;;19.19;57.37;99635.84;5101121;28;20197;-60
2023/01/08 00:28:08;;;;;;;6.93;4.17;;;;;;;19.23;57.28;99641.63;5113749;28;20436;-61
2023/01/08 00:30:33;;;;;;;8.97;3.80;;;;;;;19.22;57.28;99640.78;5114214;28;20182;-60
2023/01/08 00:32:59;;;;;;;6.90;3.80;;;;;;;19.23;57.24;99636.72;5105109;28;20198;-60
2023/01/08 00:35:24;;;;;;;6.67;4.00;;;;;;;19.21;57.32;99639.13;5101433;28;20182;-61
2023/01/08 00:37:50;;;;;;;7.13;3.73;;;;;;;19.24;57.29;99638.38;5096071;28;20190;-60
2023/01/08 00:40:15;;;;;;;6.77;4.00;;;;;;;19.23;57.56;99625.28;5093609;28;20170;-61
2023/01/08 00:42:40;;;;;;;8.13;4.47;;;;;;;19.23;57.25;99628.16;5095360;28;20197;-61
2023/01/08 00:45:06;;;;;;;7.13;4.10;;;;;;;19.21;57.44;99626.88;5092609;28;20234;-60
2023/01/08 00:47:32;;;;;;;5.63;3.90;;;;;;;19.23;57.45;99631.00;5093677;28;20171;-61
2023/01/08 00:49:57;;;;;;;5.80;3.70;;;;;;;19.23;57.35;99636.72;5095500;28;20197;-60
2023/01/08 00:52:23;;;;;;;6.83;4.00;;;;;;;19.21;57.28;99633.41;5095756;28;20301;-60
2023/01/08 00:54:48;;;;;;;7.57;4.20;;;;;;;19.23;57.17;99631.00;5095197;28;20209;-60
2023/01/08 00:57:14;;;;;;;7.03;3.40;;;;;;;19.22;57.28;99632.22;5093116;28;20190;-61
2023/01/08 00:59:39;;;;;;;8.70;4.47;;;;;;;19.20;57.32;99628.91;5096838;28;20243;-60
2023/01/08 01:02:05;;;;;;;7.30;4.20;;;;;;;19.25;57.29;99631.41;5113280;28;20173;-60
2023/01/08 01:04:30;;;;;;;7.37;4.40;;;;;;;19.19;57.26;99635.03;5098233;28;20649;-60
2023/01/08 01:06:55;;;;;;;12.60;4.10;;;;;;;19.20;57.45;99628.06;5094225;28;20521;-61
2023/01/08 01:09:21;;;;;;;6.80;3.87;;;;;;;19.23;57.24;99616.69;5094797;28;20162;-61
2023/01/08 01:11:46;;;;;;;5.07;3.67;;;;;;;19.23;57.20;99624.47;5104812;28;20182;-60
2023/01/08 01:14:12;;;;;;;7.10;4.60;;;;;;;19.17;57.24;99621.13;5072531;28;20521;-60
2023/01/08 01:16:38;;;;;;;5.53;3.43;;;;;;;19.16;57.42;99616.63;5072775;28;20171;-61
2023/01/08 01:19:04;;;;;;;6.17;3.83;;;;;;;19.16;57.24;99619.47;5101471;28;20209;-60
2023/01/08 01:21:30;;;;;;;6.30;3.80;;;;;;;19.22;57.25;99619.97;5113272;28;20821;-60
2023/01/08 01:23:57;;;;;;;7.47;3.87;;;;;;;19.19;57.38;99615.00;5085186;28;20227;-60
2023/01/08 01:26:23;;;;;;;8.03;3.77;;;;;;;19.18;57.16;99608.47;5092789;28;20882;-60
2023/01/08 01:28:49;;;;;;;5.97;3.87;;;;;;;19.16;57.33;99605.16;5074263;28;20424;-61
2023/01/08 01:31:15;;;;;;;7.50;4.47;;;;;;;19.17;57.41;99609.66;5109549;28;20705;-60
2023/01/08 01:33:40;;;;;;;7.23;3.60;;;;;;;19.21;57.09;99604.00;5108699;28;20467;-61
2023/01/08 01:36:06;;;;;;;5.40;3.80;;;;;;;19.20;57.17;99602.31;5112991;28;20569;-61
2023/01/08 01:38:31;;;;;;;5.80;3.23;;;;;;;19.16;57.18;99595.78;5108726;28;20189;-60
2023/01/08 01:40:57;;;;;;;5.87;3.87;;;;;;;19.13;57.70;99597.41;5112831;28;20583;-61
2023/01/08 01:43:39;;;;;;;7.00;3.90;;;;;;;19.20;57.31;99602.31;5110097;28;20169;-60
2023/01/08 01:46:14;;;;;;;5.43;3.30;;;;;;;19.18;57.39;99591.31;5111809;28;20233;-61
2023/01/08 01:48:40;;;;;;;5.70;3.53;;;;;;;19.16;57.35;99596.59;5088247;28;20439;-61
2023/01/08 01:51:05;;;;;;;5.80;3.60;;;;;;;19.20;57.09;99585.16;5109733;28;20791;-60
2023/01/08 01:53:31;;;;;;;5.33;3.27;;;;;;;19.19;57.25;99577.78;5093355;28;20199;-61
2023/01/08 01:55:57;;;;;;;7.50;3.63;;;;;;;19.16;57.37;99576.56;5073298;28;20213;-61
2023/01/08 01:58:23;;;;;;;5.97;3.50;;;;;;;19.17;57.30;99569.59;5092041;28;20979;-59
2023/01/08 02:00:50;;;;;;;6.07;3.00;;;;;;;19.15;57.23;99563.47;5094602;28;20529;-59
2023/01/08 02:03:15;;;;;;;7.70;3.80;;;;;;;19.16;57.29;99564.31;5072980;28;20500;-59
2023/01/08 02:05:49;;;;;;;8.50;3.73;;;;;;;19.17;57.30;99575.34;5072664;28;20499;-58
2023/01/08 02:08:38;;;;;;;6.57;3.97;;;;;;;19.16;57.30;99572.91;5108824;28;20260;-59
2023/01/08 02:11:08;;;;;;;5.30;3.53;;;;;;;19.19;57.24;99572.91;5112505;28;20395;-59
2023/01/08 02:13:35;;;;;;;4.80;3.00;;;;;;;19.19;57.41;99569.22;5095396;28;21011;-58
2023/01/08 02:16:14;;;;;;;7.07;3.33;;;;;;;19.17;57.47;99566.75;5074194;28;20432;-59
2023/01/08 02:18:45;;;;;;;7.00;3.20;;;;;;;19.14;57.16;99561.84;5075114;28;20436;-59
2023/01/08 02:21:14;;;;;;;7.57;3.60;;;;;;;19.15;57.10;99563.47;5056483;28;20416;-59
2023/01/08 02:23:48;;;;;;;4.60;3.23;;;;;;;19.12;57.40;99561.41;5093085;28;20436;-60
2023/01/08 02:26:30;;;;;;;10.07;3.47;;;;;;;19.13;57.34;99553.66;5076081;28;20416;-59
2023/01/08 02:29:05;;;;;;;5.13;3.40;;;;;;;19.13;57.22;99551.63;5070728;28;20429;-59
2023/01/08 02:31:31;;;;;;;5.73;3.53;;;;;;;19.11;57.30;99544.69;5093704;28;20474;-59
2023/01/08 02:33:57;;;;;;;5.10;3.60;;;;;;;19.14;57.24;99546.72;5091120;28;20479;-59
2023/01/08 02:36:25;;;;;;;6.50;3.10;;;;;;;19.12;57.29;99549.16;5098342;28;20264;-59
2023/01/08 02:39:14;;;;;;;6.97;3.37;;;;;;;19.11;57.52;99547.53;5111929;28;20170;-59
2023/01/08 02:42:05;;;;;;;5.33;3.30;;;;;;;19.12;57.23;99543.44;5109133;28;20522;-58
2023/01/08 02:44:33;;;;;;;6.60;3.43;;;;;;;19.12;57.39;99532.81;5091412;28;20951;-60
2023/01/08 02:46:59;;;;;;;6.37;3.73;;;;;;;19.09;57.46;99527.06;5091931;28;20504;-59
2023/01/08 02:49:27;;;;;;;6.50;3.90;;;;;;;19.12;57.18;99515.63;5075594;28;20440;-59
2023/01/08 02:51:53;;;;;;;7.53;3.50;;;;;;;19.13;57.23;99511.56;5075612;28;20173;-59
2023/01/08 02:54:21;;;;;;;7.27;3.50;;;;;;;19.11;57.50;99511.13;5094259;28;20464;-59
2023/01/08 02:56:50;;;;;;;5.67;3.60;;;;;;;19.15;57.14;99503.41;5091517;28;20173;-59
2023/01/08 02:59:15;;;;;;;4.00;3.07;;;;;;;19.14;57.45;99504.63;5056879;28;20896;-59
2023/01/08 03:01:41;;;;;;;5.40;2.80;;;;;;;19.13;57.17;99505.84;5093468;28;20428;-60
2023/01/08 03:04:15;;;;;;;5.70;3.13;;;;;;;19.13;57.07;99500.13;5077466;28;20173;-60
2023/01/08 03:06:40;;;;;;;5.93;3.60;;;;;;;19.14;56.98;99507.47;5086658;28;20182;-59
2023/01/08 03:09:06;;;;;;;6.93;3.03;;;;;;;19.13;57.40;99505.03;5094945;28;20914;-59
2023/01/08 03:11:53;;;;;;;6.20;3.60;;;;;;;19.12;57.33;99507.06;5095242;28;20179;-59
2023/01/08 03:14:31;;;;;;;6.27;3.70;;;;;;;19.12;57.21;99509.13;5069322;28;20557;-59
2023/01/08 03:16:59;;;;;;;5.60;3.80;;;;;;;19.10;57.27;99512.38;5094499;28;20418;-59
2023/01/08 03:19:35;;;;;;;5.20;3.00;;;;;;;19.10;57.15;99509.50;5097737;28;20419;-59
2023/01/08 03:22:00;;;;;;;5.07;2.90;;;;;;;19.09;57.18;99501.31;5067591;28;20535;-59
2023/01/08 03:24:28;;;;;;;4.50;3.13;;;;;;;19.12;57.07;99497.66;5076565;28;20522;-59
2023/01/08 03:26:56;;;;;;;6.10;2.87;;;;;;;19.11;57.05;99488.25;5097841;28;20174;-59
2023/01/08 03:29:23;;;;;;;6.23;3.10;;;;;;;19.10;56.97;99495.19;5096602;28;20506;-59
2023/01/08 03:31:48;;;;;;;4.60;2.67;;;;;;;19.07;57.17;99493.13;5080533;28;20415;-59
2023/01/08 03:34:14;;;;;;;5.50;3.13;;;;;;;19.09;57.21;99498.47;5096002;28;20948;-59
2023/01/08 03:36:44;;;;;;;5.07;2.67;;;;;;;19.08;57.07;99497.66;5086742;28;20178;-59
2023/01/08 03:39:51;;;;;;;6.60;3.40;;;;;;;19.10;57.36;99500.09;5075531;28;20633;-59
2023/01/08 03:42:16;;;;;;;6.50;3.27;;;;;;;19.10;57.11;99500.09;5097780;28;20431;-59
2023/01/08 03:44:42;;;;;;;5.50;3.13;;;;;;;19.09;57.14;99510.75;5094619;28;20968;-59
2023/01/08 03:47:08;;;;;;;4.40;2.87;;;;;;;19.10;57.09;99503.78;5113196;28;20874;-59
2023/01/08 03:49:33;;;;;;;4.83;2.90;;;;;;;19.09;57.20;99505.00;5113823;28;20166;-59
2023/01/08 03:51:58;;;;;;;3.70;2.93;;;;;;;19.08;57.43;99503.38;5083926;28;20186;-59
2023/01/08 03:54:26;;;;;;;4.67;2.87;;;;;;;19.09;57.42;99507.88;5077985;28;20602;-58
2023/01/08 03:56:51;;;;;;;5.17;3.00;;;;;;;19.10;57.09;99517.25;5059854;28;20174;-59
2023/01/08 03:59:17;;;;;;;5.27;3.20;;;;;;;19.08;57.10;99514.00;5114811;28;20771;-59
2023/01/08 04:01:43;;;;;;;6.50;3.67;;;;;;;19.09;57.01;99515.63;5114717;28;20166;-60
2023/01/08 04:04:09;;;;;;;5.37;3.30;;;;;;;19.09;57.04;99512.78;5091560;28;20206;-59
2023/01/08 04:06:34;;;;;;;5.50;3.20;;;;;;;19.08;57.27;99511.97;5086968;28;20182;-59
2023/01/08 04:09:00;;;;;;;4.20;2.90;;;;;;;19.10;57.20;99522.97;5094296;28;20466;-59
2023/01/08 04:11:26;;;;;;;5.17;2.93;;;;;;;19.09;57.28;99516.47;5094570;28;20194;-59
2023/01/08 04:13:51;;;;;;;5.50;3.53;;;;;;;19.10;57.11;99522.97;5077399;28;20281;-59
2023/01/08 04:16:17;;;;;;;4.70;3.10;;;;;;;19.08;56.99;99529.13;5093984;28;20216;-59
2023/01/08 04:18:42;;;;;;;5.40;3.13;;;;;;;19.07;57.14;99524.59;5102025;28;20198;-60
2023/01/08 04:21:07;;;;;;;5.90;3.63;;;;;;;19.06;57.06;99531.56;5114145;28;20170;-59
2023/01/08 04:23:33;;;;;;;6.47;3.30;;;;;;;19.09;57.36;99530.75;5101329;28;20212;-59
2023/01/08 04:25:58;;;;;;;5.37;3.20;;;;;;;19.07;56.93;99527.47;5113600;28;20226;-58
2023/01/08 04:28:24;;;;;;;6.97;3.50;;;;;;;19.06;56.86;99525.84;5114346;28;20166;-59
2023/01/08 04:30:49;;;;;;;4.80;3.30;;;;;;;19.09;57.16;99530.75;5101601;28;20746;-59
2023/01/08 04:33:15;;;;;;;5.00;3.07;;;;;;;19.10;57.06;99534.44;5074274;28;20194;-59
2023/01/08 04:35:40;;;;;;;5.67;3.07;;;;;;;19.08;57.08;99532.00;5095505;28;20190;-59
2023/01/08 04:38:06;;;;;;;3.30;2.50;;;;;;;19.05;57.27;99529.09;5093663;28;20212;-59
2023/01/08 04:40:32;;;;;;;5.00;2.50;;;;;;;19.05;57.05;99527.06;5093684;28;20259;-59
2023/01/08 04:42:57;;;;;;;4.90;2.97;;;;;;;19.06;57.12;99528.69;5086698;28;20182;-59
2023/01/08 04:45:23;;;;;;;5.43;3.27;;;;;;;19.06;57.07;99533.63;5113780;28;20832;-59
2023/01/08 04:47:55;;;;;;;6.43;2.90;;;;;;;19.07;56.91;99530.34;5113706;28;20158;-60
2023/01/08 04:50:20;;;;;;;5.10;3.00;;;;;;;19.08;56.93;99534.84;5113793;28;20261;-59
2023/01/08 04:52:45;;;;;;;5.10;3.00;;;;;;;19.06;56.97;99527.91;5106264;28;20427;-59
2023/01/08 04:55:11;;;;;;;7.97;3.20;;;;;;;19.07;57.23;99532.38;5073070;28;20186;-59
2023/01/08 04:57:36;;;;;;;4.20;2.90;;;;;;;19.04;57.16;99525.44;5092397;28;20269;-59
2023/01/08 05:00:02;;;;;;;5.33;3.03;;;;;;;19.03;57.04;99526.66;5092437;28;20178;-59
2023/01/08 05:02:28;;;;;;;4.13;2.80;;;;;;;19.04;57.21;99525.44;5092179;28;20890;-59
2023/01/08 05:04:53;;;;;;;3.53;2.47;;;;;;;19.06;57.15;99520.13;5074553;28;20449;-59
2023/01/08 05:07:19;;;;;;;4.73;3.00;;;;;;;19.04;57.17;99513.16;5100965;28;20173;-59
2023/01/08 05:09:44;;;;;;;4.27;2.60;;;;;;;19.06;56.95;99517.25;5100863;28;20261;-60
2023/01/08 05:12:09;;;;;;;4.83;3.33;;;;;;;19.06;57.21;99511.53;5092208;28;20212;-59
2023/01/08 05:14:35;;;;;;;4.93;2.63;;;;;;;19.07;57.28;99513.16;5094281;28;20194;-59
2023/01/08 05:17:00;;;;;;;4.73;2.97;;;;;;;19.07;57.08;99515.22;5092972;28;20178;-59
2023/01/08 05:19:26;;;;;;;4.60;2.70;;;;;;;19.08;57.21;99519.72;5092984;28;20492;-59
2023/01/08 05:21:51;;;;;;;3.77;2.50;;;;;;;19.05;57.06;99495.59;5092926;28;20167;-58
2023/01/08 05:24:16;;;;;;;5.13;2.70;;;;;;;19.04;57.14;99493.97;5088296;28;20189;-60
2023/01/08 05:26:42;;;;;;;5.53;2.87;;;;;;;19.05;56.87;99489.88;5092747;28;20170;-59
2023/01/08 05:29:08;;;;;;;5.50;2.43;;;;;;;19.06;57.17;99496.44;5092789;28;20166;-59
2023/01/08 05:31:34;;;;;;;4.73;2.70;;;;;;;19.07;56.89;99495.19;5092236;28;20241;-59
2023/01/08 05:33:59;;;;;;;4.83;2.83;;;;;;;19.08;56.88;99491.13;5094488;28;20464;-59
2023/01/08 05:36:25;;;;;;;6.17;3.00;;;;;;;19.07;56.97;99495.19;5111315;28;20178;-58
2023/01/08 05:38:50;;;;;;;3.70;2.60;;;;;;;19.09;56.90;99492.75;5112987;28;20173;-60
2023/01/08 05:41:16;;;;;;;4.23;2.43;;;;;;;19.06;56.82;99497.22;5112052;28;20176;-59
2023/01/08 05:43:41;;;;;;;5.00;2.50;;;;;;;19.07;56.97;99498.84;5107873;28;20185;-59
2023/01/08 05:46:06;;;;;;;5.30;3.10;;;;;;;19.06;57.22;99488.66;5111246;28;20222;-59
2023/01/08 05:48:33;;;;;;;4.17;2.80;;;;;;;19.07;56.92;99478.03;5111958;28;20170;-59
2023/01/08 05:50:58;;;;;;;6.90;3.20;;;;;;;19.04;56.96;99471.09;5111602;28;20241;-59
2023/01/08 05:53:24;;;;;;;3.43;2.43;;;;;;;19.08;57.05;99468.22;5093143;28;20472;-59
2023/01/08 05:55:49;;;;;;;3.97;2.30;;;;;;;19.07;56.93;99475.97;5082692;28;20158;-59
2023/01/08 05:58:17;;;;;;;4.70;2.90;;;;;;;19.08;57.03;99477.63;5097880;28;20641;-59
2023/01/08 06:00:43;;;;;;;5.20;2.70;;;;;;;19.09;56.81;99476.41;5108326;28;20843;-59
2023/01/08 06:03:08;;;;;;;4.37;2.77;;;;;;;19.10;56.89;99474.34;5106063;28;20420;-59
2023/01/08 06:05:34;;;;;;;4.67;2.73;;;;;;;19.09;57.01;99479.25;5071911;28;20195;-59
2023/01/08 06:07:59;;;;;;;7.13;2.73;;;;;;;19.08;57.01;99477.63;5099871;28;20674;-59
2023/01/08 06:10:25;;;;;;;4.73;2.93;;;;;;;19.07;57.15;99478.84;5112384;28;20230;-58
2023/01/08 06:12:50;;;;;;;5.00;2.97;;;;;;;19.08;57.07;99476.81;5111921;28;20174;-59
2023/01/08 06:15:16;;;;;;;4.50;2.63;;;;;;;19.07;56.97;99472.31;5112163;28;20198;-59
2023/01/08 06:17:42;;;;;;;4.00;2.50;;;;;;;19.09;56.78;99469.84;5095002;28;20186;-59
2023/01/08 06:20:08;;;;;;;3.97;2.20;;;;;;;19.09;56.86;99475.56;5091933;28;20236;-59
2023/01/08 06:22:33;;;;;;;3.87;2.50;;;;;;;19.07;56.91;99472.31;5094422;28;20182;-59
2023/01/08 06:24:58;;;;;;;3.40;2.33;;;;;;;19.10;57.05;99478.03;5071818;28;20163;-59
2023/01/08 06:27:24;;;;;;;3.50;2.50;;;;;;;19.08;56.87;99476.81;5074414;28;20159;-59
2023/01/08 06:29:49;;;;;;;4.50;2.30;;;;;;;19.09;56.90;99479.25;5092357;28;20179;-59
2023/01/08 06:32:15;;;;;;;3.83;2.47;;;;;;;19.09;56.80;99469.84;5090868;28;20163;-59
2023/01/08 06:34:40;;;;;;;5.07;3.00;;;;;;;19.09;56.71;99473.53;5100179;28;20201;-59
2023/01/08 06:37:06;;;;;;;3.43;2.10;;;;;;;19.10;56.87;99468.63;5107060;28;20222;-59
2023/01/08 06:39:31;;;;;;;3.43;2.40;;;;;;;19.07;56.91;99470.25;5096474;28;20169;-59
2023/01/08 06:41:56;;;;;;;3.00;2.17;;;;;;;19.07;56.96;99467.38;5093016;28;20201;-59
2023/01/08 06:44:22;;;;;;;3.90;2.30;;;;;;;19.11;56.66;99470.28;5095667;28;20585;-59
2023/01/08 06:46:47;;;;;;;3.10;2.13;;;;;;;19.07;56.90;99470.25;5095815;28;20614;-59
2023/01/08 06:49:13;;;;;;;3.70;2.50;;;;;;;19.08;56.78;99468.22;5095815;28;20189;-60
2023/01/08 06:51:39;;;;;;;4.50;2.50;;;;;;;19.10;57.21;99468.63;5100204;28;20625;-59
2023/01/08 06:54:04;;;;;;;4.13;2.30;;;;;;;19.09;56.82;99476.41;5090491;28;20453;-59
2023/01/08 06:56:30;;;;;;;3.70;2.43;;;;;;;19.09;56.88;99476.41;5075405;28;20193;-59
2023/01/08 06:58:55;;;;;;;3.73;2.43;;;;;;;19.09;56.82;99464.97;5092562;28;20280;-59
2023/01/08 07:01:21;;;;;;;4.40;2.30;;;;;;;19.08;56.70;99469.06;5095542;28;20162;-59
2023/01/08 07:03:47;;;;;;;3.90;2.60;;;;;;;19.09;57.42;99464.13;5092323;28;20174;-59
2023/01/08 07:06:17;;;;;;;3.67;2.40;;;;;;;19.10;56.77;99460.88;5095052;28;20751;-60
2023/01/08 07:08:43;;;;;;;5.50;2.23;;;;;;;19.11;56.97;99465.38;5095654;28;20163;-59
2023/01/08 07:11:08;;;;;;;3.80;2.47;;;;;;;19.10;56.74;99469.44;5088644;28;20438;-59
2023/01/08 07:13:34;;;;;;;4.07;2.00;;;;;;;19.10;56.87;99474.34;5095326;28;20186;-60
2023/01/08 07:16:06;;;;;;;4.70;2.50;;;;;;;19.07;56.81;99478.84;5097454;28;20544;-59
2023/01/08 07:18:31;;;;;;;4.60;2.57;;;;;;;19.11;56.78;99473.94;5095598;28;20227;-59
2023/01/08 07:20:57;;;;;;;4.13;2.90;;;;;;;19.10;56.68;99478.03;5095013;28;20416;-59
2023/01/08 07:23:22;;;;;;;2.90;2.00;;;;;;;19.09;56.61;99478.44;5096375;28;20191;-59
2023/01/08 07:25:48;;;;;;;3.60;2.30;;;;;;;19.10;56.85;99471.47;5074971;28;20170;-59
2023/01/08 07:28:13;;;;;;;4.20;2.90;;;;;;;19.11;56.78;99473.94;5086087;28;20189;-58
2023/01/08 07:30:39;;;;;;;3.63;2.20;;;;;;;19.08;56.83;99480.50;5095146;28;20162;-60
2023/01/08 07:33:04;;;;;;;4.80;2.50;;;;;;;19.11;56.79;99479.66;5094928;28;20503;-58
2023/01/08 07:35:30;;;;;;;3.40;2.03;;;;;;;19.10;56.85;99475.19;5097267;28;20240;-59
2023/01/08 07:37:55;;;;;;;3.47;2.03;;;;;;;19.11;56.92;99478.88;5094978;28;20155;-59
2023/01/08 07:40:21;;;;;;;3.93;2.27;;;;;;;19.11;56.70;99485.38;5097132;28;20182;-58
2023/01/08 07:42:46;;;;;;;5.20;2.63;;;;;;;19.13;56.75;99477.25;5100990;28;20183;-58
2023/01/08 07:45:13;;;;;;;3.83;2.50;;;;;;;19.12;56.71;99480.50;5094718;28;20281;-59
2023/01/08 07:47:38;;;;;;;6.30;2.60;;;;;;;19.12;57.08;99477.63;5096955;28;20808;-59
2023/01/08 07:50:04;;;;;;;4.00;2.43;;;;;;;19.16;56.65;99475.63;5094594;28;20170;-59
2023/01/08 07:52:29;;;;;;;3.40;2.13;;;;;;;19.12;56.67;99474.78;5094699;28;20251;-58
2023/01/08 07:54:55;;;;;;;5.10;2.40;;;;;;;19.11;56.81;99478.88;5091826;28;20642;-59
2023/01/08 07:57:20;;;;;;;4.50;2.57;;;;;;;19.11;56.75;99473.16;5091968;28;20163;-59
2023/01/08 07:59:46;;;;;;;4.73;2.53;;;;;;;19.10;56.65;99472.31;5094278;28;20185;-59
2023/01/08 08:02:11;;;;;;;4.80;2.10;;;;;;;19.11;56.65;99478.88;5092327;28;20189;-58
2023/01/08 08:04:37;;;;;;;4.73;2.43;;;;;;;19.11;56.71;99473.16;5089087;28;20270;-59
2023/01/08 08:07:02;;;;;;;3.80;2.27;;;;;;;19.11;56.89;99458.84;5105179;28;20208;-58
2023/01/08 08:09:27;;;;;;;4.33;2.30;;;;;;;19.12;56.62;99475.56;5111880;28;20537;-59
2023/01/08 08:11:53;;;;;;;3.30;2.00;;;;;;;19.14;56.68;99467.44;5110075;28;20767;-59
2023/01/08 08:14:18;;;;;;;2.80;2.20;;;;;;;19.10;57.09;99463.72;5114711;28;20209;-59
2023/01/08 08:16:44;;;;;;;3.47;2.13;;;;;;;19.14;56.63;99478.03;5095911;28;20177;-58
2023/01/08 08:19:12;;;;;;;3.67;2.23;;;;;;;19.15;56.90;99476.81;5098994;28;20186;-58
2023/01/08 08:21:38;;;;;;;2.73;1.90;;;;;;;19.14;57.29;99475.19;5093472;28;20170;-58
2023/01/08 08:24:03;;;;;;;4.33;2.20;;;;;;;19.11;56.71;99479.66;5093327;28;20443;-59
2023/01/08 08:26:29;;;;;;;3.33;2.03;;;;;;;19.11;56.55;99485.38;5113944;28;20169;-59
2023/01/08 08:28:54;;;;;;;3.33;2.43;;;;;;;19.10;56.80;99485.78;5114351;28;20170;-59
2023/01/08 08:31:20;;;;;;;4.07;2.50;;;;;;;19.13;56.93;99490.72;5079335;28;20190;-59
2023/01/08 08:33:45;;;;;;;3.63;2.17;;;;;;;19.13;56.67;99503.00;5093250;28;20186;-59
2023/01/08 08:36:11;;;;;;;3.60;2.07;;;;;;;19.11;56.88;99502.56;5098591;28;20177;-59
2023/01/08 08:38:37;;;;;;;3.23;2.10;;;;;;;19.13;56.62;99503.00;5114149;28;20590;-59
2023/01/08 08:41:02;;;;;;;4.07;2.67;;;;;;;19.12;56.57;99501.31;5113983;28;20231;-59
2023/01/08 08:43:27;;;;;;;4.47;2.00;;;;;;;19.11;56.67;99502.56;5109780;28;20663;-59
2023/01/08 08:45:55;;;;;;;2.97;2.00;;;;;;;19.16;56.42;99505.03;5113785;28;20244;-59
2023/01/08 08:48:20;;;;;;;3.73;2.00;;;;;;;19.15;56.82;99508.28;5105199;28;20190;-59
2023/01/08 08:50:46;;;;;;;3.37;2.23;;;;;;;19.12;56.66;99506.25;5093788;28;20907;-59
2023/01/08 08:53:11;;;;;;;6.73;2.40;;;;;;;19.13;56.77;99510.75;5087900;28;20195;-59
2023/01/08 08:55:37;;;;;;;4.40;2.47;;;;;;;19.18;56.87;99510.34;5073007;28;20653;-59
2023/01/08 08:58:04;;;;;;;2.50;1.70;;;;;;;19.15;56.65;99509.13;5089219;28;20189;-60
2023/01/08 09:00:29;;;;;;;3.40;2.30;;;;;;;19.16;56.63;99504.22;5094954;28;20194;-59
2023/01/08 09:02:55;;;;;;;3.47;2.20;;;;;;;19.14;56.75;99501.75;5093154;28;20400;-59
2023/01/08 09:05:20;;;;;;;3.07;2.00;;;;;;;19.14;56.55;99504.63;5092325;28;20572;-59
2023/01/08 09:07:45;;;;;;;2.53;1.77;;;;;;;19.13;56.67;99500.13;5095330;28;20187;-59
2023/01/08 09:10:11;;;;;;;3.60;1.97;;;;;;;19.18;56.59;99507.50;5093146;28;20174;-59
2023/01/08 09:12:36;;;;;;;2.90;1.90;;;;;;;19.17;56.55;99509.53;5095396;28;20698;-59
2023/01/08 09:15:02;;;;;;;2.63;1.70;;;;;;;19.16;56.48;99501.38;5093030;28;20197;-60
2023/01/08 09:17:27;;;;;;;3.13;1.80;;;;;;;19.14;56.64;99507.47;5093389;28;20174;-59
2023/01/08 09:19:53;;;;;;;3.40;2.07;;;;;;;19.14;56.54;99504.63;5094753;28;20185;-59
2023/01/08 09:22:18;;;;;;;3.33;2.03;;;;;;;19.15;56.54;99516.88;5110992;28;20263;-59
2023/01/08 09:24:44;;;;;;;2.40;1.70;;;;;;;19.15;56.41;99509.13;5091477;28;20281;-60
2023/01/08 09:27:09;;;;;;;3.17;2.13;;;;;;;19.15;56.52;99514.84;5091950;28;20174;-59
2023/01/08 09:29:35;;;;;;;2.87;1.80;;;;;;;19.15;56.65;99523.44;5093937;28;20183;-60
2023/01/08 09:32:00;;;;;;;3.10;2.10;;;;;;;19.15;56.61;99517.69;5092277;28;20189;-59
2023/01/08 09:34:26;;;;;;;3.77;2.30;;;;;;;19.11;56.73;99514.00;5071534;28;20207;-60
2023/01/08 09:36:51;;;;;;;3.33;2.10;;;;;;;19.16;56.51;99516.47;5097922;28;20178;-59
2023/01/08 09:39:17;;;;;;;3.20;1.93;;;;;;;19.13;56.64;99505.84;5112399;28;20181;-59
2023/01/08 09:41:44;;;;;;;3.20;1.97;;;;;;;19.13;56.57;99508.72;5109546;28;20178;-59
2023/01/08 09:44:13;;;;;;;2.40;1.73;;;;;;;19.13;56.67;99519.31;5092558;28;20306;-60
2023/01/08 09:46:38;;;;;;;4.77;2.40;;;;;;;19.13;56.61;99508.72;5058073;28;20424;-59
2023/01/08 09:49:05;;;;;;;3.43;1.80;;;;;;;19.12;56.63;99504.19;5094538;28;20864;-59
2023/01/08 09:51:33;;;;;;;3.20;2.20;;;;;;;19.15;56.63;99511.16;5092310;28;20206;-59
2023/01/08 09:53:59;;;;;;;3.77;2.00;;;;;;;19.14;56.44;99504.63;5077207;28;20459;-59
2023/01/08 09:56:24;;;;;;;2.93;1.97;;;;;;;19.16;56.52;99516.47;5112711;28;20396;-60
2023/01/08 09:58:52;;;;;;;2.90;1.90;;;;;;;19.15;56.66;99516.88;5112415;28;20345;-59
2023/01/08 10:01:20;;;;;;;3.63;2.20;;;;;;;19.15;56.73;99516.88;5078918;28;20187;-59
2023/01/08 10:04:05;;;;;;;3.40;1.57;;;;;;;19.13;56.67;99523.03;5054033;28;20496;-60
2023/01/08 10:06:30;;;;;;;3.90;2.03;;;;;;;19.13;56.59;99523.03;5086093;28;21004;-59
2023/01/08 10:08:56;;;;;;;3.07;1.70;;;;;;;19.17;56.37;99518.09;5092011;28;20424;-59
2023/01/08 10:11:21;;;;;;;2.70;1.90;;;;;;;19.11;56.69;99514.00;5073890;28;20162;-60
2023/01/08 10:13:49;;;;;;;2.70;1.70;;;;;;;19.10;56.61;99505.81;5087841;28;20201;-59
2023/01/08 10:16:24;;;;;;;3.43;2.10;;;;;;;19.13;56.89;99488.69;5077268;28;20526;-59
2023/01/08 10:18:49;;;;;;;4.67;1.70;;;;;;;19.10;56.35;99492.34;5098654;28;20436;-60
2023/01/08 10:21:15;;;;;;;2.73;1.63;;;;;;;19.11;56.90;99485.38;5091873;28;20934;-59
2023/01/08 10:23:51;;;;;;;2.90;1.90;;;;;;;19.14;56.64;99492.34;5073764;28;20546;-59
2023/01/08 10:26:35;;;;;;;2.73;1.67;;;;;;;19.12;56.73;99477.63;5092089;28;20177;-60
2023/01/08 10:29:13;;;;;;;4.13;2.20;;;;;;;19.12;56.76;99460.47;5092954;28;20431;-59
2023/01/08 10:31:57;;;;;;;3.40;2.03;;;;;;;19.14;56.71;99455.97;5091509;28;20443;-59
2023/01/08 10:34:25;;;;;;;3.33;2.00;;;;;;;19.12;56.56;99441.25;5071554;28;20508;-59
2023/01/08 10:36:51;;;;;;;3.30;1.97;;;;;;;19.14;56.57;99450.25;5094201;28;20879;-59
2023/01/08 10:39:26;;;;;;;2.80;1.73;;;;;;;19.12;56.81;99451.88;5110524;28;20489;-60
2023/01/08 10:41:53;;;;;;;3.00;1.73;;;;;;;19.15;56.72;99445.34;5077007;28;20181;-60
2023/01/08 10:44:18;;;;;;;3.73;2.00;;;;;;;19.14;56.64;99443.72;5109931;28;20458;-59
2023/01/08 10:46:47;;;;;;;3.70;1.80;;;;;;;19.20;56.61;99436.34;5093917;28;20432;-59
2023/01/08 10:49:17;;;;;;;3.90;2.00;;;;;;;19.15;56.74;99428.16;5057488;28;20169;-59
2023/01/08 10:51:50;;;;;;;3.60;2.03;;;;;;;19.14;56.52;99424.50;5100818;28;20518;-59
2023/01/08 10:54:31;;;;;;;3.73;1.90;;;;;;;19.17;56.35;99412.22;5058882;28;20464;-59
2023/01/08 10:56:57;;;;;;;47.77;4.13;;;;;;;19.13;56.94;99408.56;5061332;28;20423;-59
2023/01/08 10:59:23;;;;;;;36.77;3.40;;;;;;;19.11;56.98;99396.69;5090992;28;20420;-59
2023/01/08 11:01:50;;;;;;;56.20;4.00;;;;;;;19.17;56.96;99391.41;5109678;28;20269;-59
2023/01/08 11:04:26;;;;;;;55.93;5.23;;;;;;;19.15;57.06;99390.97;5080844;28;20436;-59
2023/01/08 11:06:51;;;;;;;61.17;5.07;;;;;;;19.17;57.08;99392.22;5083674;28;20518;-60
2023/01/08 11:09:27;;;;;;;34.53;2.70;;;;;;;19.13;57.40;99384.84;5111607;28;20412;-59
2023/01/08 11:11:52;;;;;;;46.03;4.40;;;;;;;19.19;57.28;99384.06;5081549;28;20261;-59
2023/01/08 11:14:21;;;;;;;34.23;3.23;;;;;;;19.14;57.45;99378.72;5091230;28;20459;-59
2023/01/08 11:16:47;;;;;;;31.90;3.93;;;;;;;19.15;57.65;99362.38;5093893;28;20256;-59
2023/01/08 11:19:16;;;;;;;32.00;3.43;;;;;;;19.15;57.55;99368.91;5091136;28;20420;-60
2023/01/08 11:21:42;;;;;;;25.57;2.80;;;;;;;19.17;57.54;99355.00;5093395;28;20216;-59
2023/01/08 11:24:15;;;;;;;18.40;3.00;;;;;;;19.17;57.59;99360.72;5073432;28;20432;-59
2023/01/08 11:26:43;;;;;;;20.33;3.03;;;;;;;19.16;57.62;99350.53;5111837;28;20158;-59
2023/01/08 11:29:15;;;;;;;15.50;2.87;;;;;;;19.15;57.83;99337.44;5090867;28;20438;-59
2023/01/08 11:31:45;;;;;;;25.70;2.90;;;;;;;19.19;57.55;99332.53;5096667;28;20418;-59
2023/01/08 11:34:29;;;;;;;26.60;3.43;;;;;;;19.16;57.60;99321.91;5093957;28;20950;-60